createdAt,value
2023-04-27T00:00:37.397Z,3.10
2023-04-27T00:03:06.565Z,3.67
2023-04-27T00:05:39.356Z,3.53
2023-04-27T00:08:07.707Z,3.10
2023-04-27T00:10:35.665Z,3.13
2023-04-27T00:13:03.530Z,2.13
2023-04-27T00:15:31.266Z,1.87
2023-04-27T00:17:59.220Z,2.87
2023-04-27T00:20:26.877Z,2.77
2023-04-27T00:22:56.637Z,2.30
2023-04-27T00:25:24.574Z,2.17
2023-04-27T00:27:52.218Z,2.37
2023-04-27T00:30:19.914Z,4.83
2023-04-27T00:32:47.948Z,3.80
2023-04-27T00:35:17.586Z,3.30
2023-04-27T00:37:45.372Z,3.20
2023-04-27T00:40:14.773Z,2.63
2023-04-27T00:42:42.626Z,2.60
2023-04-27T00:45:11.746Z,2.37
2023-04-27T00:47:39.462Z,3.10
2023-04-27T00:50:08.623Z,2.60
2023-04-27T00:52:37.275Z,2.70
2023-04-27T00:55:05.900Z,2.63
2023-04-27T00:57:35.463Z,1.77
2023-04-27T01:00:06.880Z,1.43
2023-04-27T01:02:36.945Z,3.10
2023-04-27T01:05:05.015Z,4.13
2023-04-27T01:07:32.884Z,1.70
2023-04-27T01:10:00.501Z,1.83
2023-04-27T01:12:28.630Z,2.63
2023-04-27T01:14:57.592Z,2.90
2023-04-27T01:17:25.671Z,2.50
2023-04-27T01:19:55.324Z,2.30
2023-04-27T01:22:23.316Z,2.70
2023-04-27T01:24:52.334Z,2.10
2023-04-27T01:27:19.999Z,2.67
2023-04-27T01:29:48.124Z,3.13
2023-04-27T01:32:15.748Z,3.00
2023-04-27T01:34:43.752Z,2.33
2023-04-27T01:37:12.031Z,2.77
2023-04-27T01:39:40.047Z,2.73
2023-04-27T01:42:10.406Z,3.20
2023-04-27T01:44:40.820Z,3.57
2023-04-27T01:47:10.196Z,2.33
2023-04-27T01:49:38.010Z,3.40
2023-04-27T01:52:05.678Z,4.00
2023-04-27T01:54:34.773Z,3.13
2023-04-27T01:57:02.644Z,4.27
2023-04-27T01:59:31.812Z,3.63
2023-04-27T02:01:59.545Z,2.93
2023-04-27T02:04:27.585Z,2.73
2023-04-27T02:06:55.307Z,2.60
2023-04-27T02:09:23.164Z,2.23
2023-04-27T02:11:50.884Z,2.17
2023-04-27T02:14:18.660Z,3.40
2023-04-27T02:16:49.348Z,3.00
2023-04-27T02:19:17.328Z,3.03
2023-04-27T02:21:44.975Z,3.07
2023-04-27T02:24:12.758Z,2.57
2023-04-27T02:26:40.694Z,3.13
2023-04-27T02:29:08.947Z,2.83
2023-04-27T02:31:37.281Z,3.77
2023-04-27T02:34:07.016Z,3.07
2023-04-27T02:36:34.710Z,2.83
2023-04-27T02:39:02.707Z,3.00
2023-04-27T02:41:32.731Z,2.47
2023-04-27T02:44:00.510Z,2.80
2023-04-27T02:46:28.185Z,3.17
2023-04-27T02:48:56.517Z,3.17
2023-04-27T02:51:26.065Z,2.27
2023-04-27T02:53:54.466Z,2.87
2023-04-27T02:56:22.089Z,2.80
2023-04-27T02:58:49.877Z,1.97
2023-04-27T03:01:18.184Z,3.70
2023-04-27T03:03:47.438Z,2.93
2023-04-27T03:06:15.865Z,2.50
2023-04-27T03:08:45.948Z,2.37
2023-04-27T03:11:13.768Z,3.07
2023-04-27T03:13:42.641Z,3.53
2023-04-27T03:16:11.668Z,3.43
2023-04-27T03:18:40.631Z,3.43
2023-04-27T03:21:09.317Z,3.90
2023-04-27T03:23:37.447Z,3.13
2023-04-27T03:26:10.917Z,3.23
2023-04-27T03:28:38.705Z,2.90
2023-04-27T03:31:07.437Z,3.80
2023-04-27T03:33:36.260Z,3.33
2023-04-27T03:36:05.523Z,3.43
2023-04-27T03:38:35.916Z,4.17
2023-04-27T03:41:04.438Z,3.53
2023-04-27T03:43:33.422Z,3.37
2023-04-27T03:46:01.392Z,4.77
2023-04-27T03:48:29.257Z,3.60
2023-04-27T03:50:57.249Z,3.10
2023-04-27T03:53:24.928Z,3.47
2023-04-27T03:55:53.108Z,2.77
2023-04-27T03:58:20.765Z,4.00
2023-04-27T04:01:10.088Z,2.87
2023-04-27T04:03:38.441Z,4.07
2023-04-27T04:06:08.846Z,4.07
2023-04-27T04:08:36.542Z,3.60
2023-04-27T04:11:04.359Z,3.00
2023-04-27T04:13:32.154Z,2.93
2023-04-27T04:16:04.544Z,4.20
2023-04-27T04:18:33.717Z,3.53
2023-04-27T04:21:02.152Z,3.53
2023-04-27T04:23:29.942Z,2.60
2023-04-27T04:25:58.596Z,3.27
2023-04-27T04:28:30.675Z,3.20
2023-04-27T04:30:59.071Z,3.97
2023-04-27T04:33:27.203Z,2.77
2023-04-27T04:35:56.192Z,3.63
2023-04-27T04:38:24.435Z,3.33
2023-04-27T04:40:52.933Z,3.30
2023-04-27T04:43:21.414Z,3.83
2023-04-27T04:45:49.298Z,3.23
2023-04-27T04:48:17.634Z,3.17
2023-04-27T04:50:46.575Z,4.10
2023-04-27T04:53:15.858Z,4.40
2023-04-27T04:55:43.537Z,3.37
2023-04-27T04:58:11.316Z,3.43
2023-04-27T05:00:39.068Z,3.57
2023-04-27T05:03:07.600Z,2.97
2023-04-27T05:05:35.621Z,3.33
2023-04-27T05:08:03.443Z,2.97
2023-04-27T05:10:32.690Z,5.10
2023-04-27T05:13:00.313Z,3.60
2023-04-27T05:15:27.955Z,4.03
2023-04-27T05:17:55.709Z,4.00
2023-04-27T05:20:23.334Z,3.80
2023-04-27T05:22:50.960Z,4.23
2023-04-27T05:25:18.858Z,3.30
2023-04-27T05:27:47.783Z,3.63
2023-04-27T05:30:15.644Z,4.70
2023-04-27T05:32:43.305Z,3.40
2023-04-27T05:35:11.347Z,3.30
2023-04-27T05:37:38.942Z,3.23
2023-04-27T05:40:09.337Z,3.10
2023-04-27T05:42:37.030Z,2.73
2023-04-27T05:45:07.574Z,3.63
2023-04-27T05:47:35.239Z,2.77
2023-04-27T05:50:03.686Z,4.07
2023-04-27T05:52:31.681Z,3.93
2023-04-27T05:54:59.838Z,4.00
2023-04-27T05:57:27.798Z,4.23
2023-04-27T05:59:55.590Z,3.03
2023-04-27T06:02:24.809Z,4.43
2023-04-27T06:04:52.563Z,3.93
2023-04-27T06:07:20.541Z,3.53
2023-04-27T06:09:48.132Z,3.10
2023-04-27T06:12:15.893Z,3.70
2023-04-27T06:14:43.484Z,3.83
2023-04-27T06:17:11.313Z,3.97
2023-04-27T06:19:40.578Z,3.87
2023-04-27T06:22:08.536Z,3.47
2023-04-27T06:24:36.736Z,3.77
2023-04-27T06:27:04.693Z,4.60
2023-04-27T06:29:32.337Z,3.73
2023-04-27T06:32:00.230Z,3.13
2023-04-27T06:34:28.007Z,3.97
2023-04-27T06:36:57.267Z,4.33
2023-04-27T06:39:24.864Z,3.73
2023-04-27T06:41:52.463Z,4.33
2023-04-27T06:44:20.124Z,3.37
2023-04-27T06:46:47.736Z,3.77
2023-04-27T06:49:15.648Z,4.17
2023-04-27T06:51:43.691Z,4.73
2023-04-27T06:54:12.624Z,4.57
2023-04-27T06:56:40.704Z,4.97
2023-04-27T06:59:09.037Z,4.30
2023-04-27T07:01:37.259Z,4.43
2023-04-27T07:04:05.252Z,4.33
2023-04-27T07:06:33.554Z,5.33
2023-04-27T07:09:01.242Z,3.93
2023-04-27T07:11:30.368Z,4.80
2023-04-27T07:13:58.017Z,3.83
2023-04-27T07:16:25.978Z,3.97
2023-04-27T07:18:53.596Z,3.70
2023-04-27T07:21:21.861Z,4.73
2023-04-27T07:23:49.491Z,4.53
2023-04-27T07:26:18.030Z,4.70
2023-04-27T07:28:47.329Z,4.23
2023-04-27T07:31:15.323Z,4.63
2023-04-27T07:33:43.286Z,4.67
2023-04-27T07:36:11.296Z,4.13
2023-04-27T07:38:38.894Z,4.77
2023-04-27T07:41:07.398Z,5.57
2023-04-27T07:43:35.154Z,4.20
2023-04-27T07:46:04.504Z,5.13
2023-04-27T07:48:32.647Z,4.60
2023-04-27T07:51:00.254Z,5.30
2023-04-27T07:53:28.015Z,5.50
2023-04-27T07:55:55.617Z,5.93
2023-04-27T07:58:23.399Z,4.33
2023-04-27T08:00:51.006Z,4.60
2023-04-27T08:03:20.377Z,4.03
2023-04-27T08:05:48.346Z,6.93
2023-04-27T08:08:16.936Z,4.73
2023-04-27T08:10:44.630Z,4.43
2023-04-27T08:13:12.764Z,4.07
2023-04-27T08:15:40.512Z,4.50
2023-04-27T08:18:08.271Z,4.90
2023-04-27T08:20:37.213Z,4.87
2023-04-27T08:23:04.966Z,5.53
2023-04-27T08:25:33.591Z,4.90
2023-04-27T08:28:01.419Z,4.40
2023-04-27T08:30:29.074Z,4.20
2023-04-27T08:32:56.791Z,5.10
2023-04-27T08:35:24.400Z,4.10
2023-04-27T08:37:54.372Z,4.87
2023-04-27T08:40:24.490Z,5.13
2023-04-27T08:42:56.643Z,4.10
2023-04-27T08:45:25.019Z,4.10
2023-04-27T08:47:53.506Z,3.57
2023-04-27T08:50:21.340Z,5.13
2023-04-27T08:52:49.723Z,4.23
2023-04-27T08:55:18.851Z,2.97
2023-04-27T08:57:56.119Z,3.20
2023-04-27T09:00:25.425Z,4.00
2023-04-27T09:02:53.658Z,3.53
2023-04-27T09:05:24.420Z,3.13
2023-04-27T09:07:59.613Z,4.30
2023-04-27T09:10:29.913Z,4.53
2023-04-27T09:12:59.391Z,3.50
2023-04-27T09:15:27.367Z,2.50
2023-04-27T09:17:56.801Z,3.50
2023-04-27T09:20:27.234Z,3.20
2023-04-27T09:22:58.491Z,3.00
2023-04-27T09:25:29.521Z,2.90
2023-04-27T09:27:58.331Z,4.53
2023-04-27T09:30:26.618Z,2.80
2023-04-27T09:32:56.991Z,2.53
2023-04-27T09:35:27.290Z,2.50
2023-04-27T09:37:55.860Z,2.57
2023-04-27T09:40:26.620Z,2.17
2023-04-27T09:42:57.421Z,2.67
2023-04-27T09:45:25.960Z,2.73
2023-04-27T09:47:54.039Z,2.50
2023-04-27T09:50:22.072Z,2.37
2023-04-27T09:52:49.934Z,2.73
2023-04-27T09:55:20.987Z,2.53
2023-04-27T09:57:56.097Z,2.53
2023-04-27T10:00:48.418Z,3.00
2023-04-27T10:03:23.741Z,2.73
2023-04-27T10:06:32.879Z,2.60
2023-04-27T10:09:05.065Z,2.10
2023-04-27T10:11:40.738Z,2.10
2023-04-27T10:14:11.234Z,2.23
2023-04-27T10:16:47.292Z,2.30
2023-04-27T10:19:15.719Z,2.17
2023-04-27T10:21:58.984Z,1.70
2023-04-27T10:24:35.797Z,1.93
2023-04-27T10:27:06.282Z,2.53
2023-04-27T10:29:38.883Z,2.30
2023-04-27T10:32:14.023Z,2.23
2023-04-27T10:34:43.870Z,1.73
2023-04-27T10:37:14.088Z,3.33
2023-04-27T10:39:47.639Z,2.20
2023-04-27T10:42:27.112Z,1.63
2023-04-27T10:44:57.545Z,1.80
2023-04-27T10:47:38.061Z,1.27
2023-04-27T10:50:07.012Z,1.90
2023-04-27T10:52:34.958Z,2.10
2023-04-27T10:55:13.806Z,1.63
2023-04-27T10:57:47.703Z,1.40
2023-04-27T11:00:17.565Z,1.40
2023-04-27T11:02:46.628Z,1.47
2023-04-27T11:05:19.418Z,2.20
2023-04-27T11:07:48.043Z,1.23
2023-04-27T11:10:20.307Z,1.40
2023-04-27T11:12:48.197Z,1.50
2023-04-27T11:15:15.979Z,1.20
2023-04-27T11:17:44.343Z,1.37
2023-04-27T11:20:14.359Z,1.13
2023-04-27T11:22:46.813Z,2.77
2023-04-27T11:25:15.156Z,1.53
2023-04-27T11:27:42.836Z,1.23
2023-04-27T11:30:21.163Z,1.30
2023-04-27T11:32:48.893Z,2.20
2023-04-27T11:35:19.221Z,1.27
2023-04-27T11:37:59.391Z,1.50
2023-04-27T11:40:28.932Z,1.60
2023-04-27T11:43:03.133Z,1.47
2023-04-27T11:45:31.565Z,1.20
2023-04-27T11:47:59.870Z,1.30
2023-04-27T11:50:28.904Z,1.73
2023-04-27T11:53:01.410Z,1.43
2023-04-27T11:55:29.036Z,2.07
2023-04-27T11:57:58.942Z,1.60
2023-04-27T12:00:26.898Z,1.20
2023-04-27T12:02:54.574Z,1.57
2023-04-27T12:05:23.326Z,1.63
2023-04-27T12:07:53.211Z,2.07
2023-04-27T12:10:21.087Z,1.00
2023-04-27T12:12:48.858Z,5.67
2023-04-27T12:15:16.605Z,1.10
2023-04-27T12:17:44.284Z,1.20
2023-04-27T12:20:14.641Z,1.50
2023-04-27T12:22:42.370Z,1.50
2023-04-27T12:25:11.475Z,1.30
2023-04-27T12:27:39.066Z,1.73
2023-04-27T12:30:09.457Z,2.47
2023-04-27T12:32:37.156Z,1.90
2023-04-27T12:35:06.218Z,1.47
2023-04-27T12:37:33.985Z,1.40
2023-04-27T12:40:01.796Z,0.90
2023-04-27T12:42:30.737Z,2.03
2023-04-27T12:44:58.492Z,1.03
2023-04-27T12:47:45.998Z,1.00
2023-04-27T12:50:15.708Z,1.33
2023-04-27T12:52:43.283Z,0.93
2023-04-27T12:55:21.507Z,1.17
2023-04-27T12:58:00.153Z,1.30
2023-04-27T13:00:27.902Z,1.57
2023-04-27T13:02:56.609Z,1.57
2023-04-27T13:05:24.732Z,1.37
2023-04-27T13:07:52.315Z,1.73
2023-04-27T13:10:20.029Z,1.30
2023-04-27T13:12:47.706Z,1.27
2023-04-27T13:15:17.066Z,1.57
2023-04-27T13:17:44.736Z,0.93
2023-04-27T13:20:13.327Z,1.50
2023-04-27T13:22:42.236Z,1.53
2023-04-27T13:25:10.603Z,1.77
2023-04-27T13:27:38.223Z,0.90
2023-04-27T13:30:07.320Z,1.27
2023-04-27T13:32:36.459Z,1.27
2023-04-27T13:35:05.374Z,2.10
2023-04-27T13:37:33.363Z,0.90
2023-04-27T13:40:01.255Z,1.40
2023-04-27T13:42:30.023Z,1.10
2023-04-27T13:44:57.882Z,1.20
2023-04-27T13:47:25.496Z,1.53
2023-04-27T13:49:54.942Z,1.10
2023-04-27T13:52:22.536Z,1.37
2023-04-27T13:54:50.126Z,1.40
2023-04-27T13:57:17.891Z,2.20
2023-04-27T13:59:45.464Z,0.90
2023-04-27T14:02:14.729Z,1.17
2023-04-27T14:04:42.386Z,0.63
2023-04-27T14:07:11.594Z,1.20
2023-04-27T14:09:39.178Z,1.20
2023-04-27T14:12:06.947Z,1.10
2023-04-27T14:14:35.738Z,0.80
2023-04-27T14:17:03.811Z,1.03
2023-04-27T14:19:31.517Z,0.60
2023-04-27T14:22:00.018Z,1.00
2023-04-27T14:24:29.660Z,1.20
2023-04-27T14:26:57.523Z,1.97
2023-04-27T14:29:25.663Z,1.13
2023-04-27T14:31:53.981Z,1.27
2023-04-27T14:34:21.744Z,0.80
2023-04-27T14:36:49.476Z,1.10
2023-04-27T14:39:17.157Z,1.10
2023-04-27T14:41:46.291Z,1.03
2023-04-27T14:44:13.876Z,1.00
2023-04-27T14:46:41.665Z,1.13
2023-04-27T14:49:09.298Z,0.63
2023-04-27T14:51:37.024Z,1.40
2023-04-27T14:54:04.962Z,1.27
2023-04-27T14:56:32.690Z,0.80
2023-04-27T14:59:01.648Z,0.77
2023-04-27T15:01:29.462Z,1.03
2023-04-27T15:03:58.049Z,0.83
2023-04-27T15:06:28.149Z,0.90
2023-04-27T15:08:56.078Z,0.73
2023-04-27T15:11:23.747Z,1.20
2023-04-27T15:13:51.422Z,1.23
2023-04-27T15:16:20.832Z,0.93
2023-04-27T15:18:48.468Z,0.70
2023-04-27T15:21:16.050Z,0.93
2023-04-27T15:23:43.642Z,0.43
2023-04-27T15:26:11.229Z,0.87
2023-04-27T15:28:38.791Z,1.00
2023-04-27T15:31:06.608Z,0.70
2023-04-27T15:33:35.765Z,1.50
2023-04-27T15:36:03.597Z,1.00
2023-04-27T15:38:31.304Z,1.37
2023-04-27T15:40:59.111Z,0.93
2023-04-27T15:43:26.919Z,0.60
2023-04-27T15:45:54.640Z,0.98
2023-04-27T15:48:22.474Z,1.40
2023-04-27T15:50:51.396Z,2.10
2023-04-27T15:53:18.979Z,1.03
2023-04-27T15:55:46.791Z,1.07
2023-04-27T15:58:14.628Z,1.07
2023-04-27T16:00:42.259Z,1.20
2023-04-27T16:03:11.343Z,1.07
2023-04-27T16:05:39.220Z,0.90
2023-04-27T16:08:08.346Z,1.13
2023-04-27T16:10:36.014Z,1.07
2023-04-27T16:13:03.713Z,1.33
2023-04-27T16:15:31.297Z,1.33
2023-04-27T16:17:59.333Z,0.60
2023-04-27T16:20:28.934Z,0.83
2023-04-27T16:22:56.840Z,0.93
2023-04-27T16:25:25.776Z,0.80
2023-04-27T16:27:53.342Z,1.43
2023-04-27T16:30:21.812Z,1.43
2023-04-27T16:32:49.470Z,1.87
2023-04-27T16:35:17.052Z,1.57
2023-04-27T16:37:44.762Z,1.00
2023-04-27T16:40:13.497Z,1.13
2023-04-27T16:42:42.513Z,1.20
2023-04-27T16:45:11.169Z,1.17
2023-04-27T16:47:38.975Z,0.90
2023-04-27T16:50:07.489Z,1.43
2023-04-27T16:52:35.261Z,2.93
2023-04-27T16:55:02.852Z,3.00
2023-04-27T16:57:30.492Z,1.33
2023-04-27T17:00:00.879Z,1.10
2023-04-27T17:02:28.893Z,0.90
2023-04-27T17:04:57.560Z,1.40
2023-04-27T17:07:28.466Z,2.20
2023-04-27T17:09:56.103Z,1.63
2023-04-27T17:12:23.817Z,1.90
2023-04-27T17:14:51.433Z,0.80
2023-04-27T17:17:20.483Z,1.67
2023-04-27T17:19:48.060Z,2.00
2023-04-27T17:22:16.539Z,3.07
2023-04-27T17:24:44.134Z,1.07
2023-04-27T17:27:12.547Z,1.40
2023-04-27T17:29:40.147Z,0.93
2023-04-27T17:32:09.178Z,1.30
2023-04-27T17:34:38.781Z,1.23
2023-04-27T17:37:08.052Z,1.07
2023-04-27T17:39:36.042Z,1.00
2023-04-27T17:42:03.731Z,1.37
2023-04-27T17:44:31.835Z,0.50
2023-04-27T17:46:59.414Z,1.13
2023-04-27T17:49:27.599Z,0.50
2023-04-27T17:51:56.665Z,0.87
2023-04-27T17:54:24.279Z,1.03
2023-04-27T17:56:51.903Z,1.10
2023-04-27T17:59:19.706Z,1.00
2023-04-27T18:01:47.315Z,1.17
2023-04-27T18:04:15.191Z,0.93
2023-04-27T18:06:42.808Z,1.40
2023-04-27T18:09:13.100Z,1.53
2023-04-27T18:11:41.186Z,1.80
2023-04-27T18:14:08.918Z,0.70
2023-04-27T18:16:36.531Z,1.77
2023-04-27T18:19:04.438Z,1.37
2023-04-27T18:21:32.611Z,2.30
2023-04-27T18:24:00.290Z,1.10
2023-04-27T18:26:30.514Z,1.90
2023-04-27T18:28:58.502Z,1.07
2023-04-27T18:31:26.350Z,2.27
2023-04-27T18:33:53.989Z,1.00
2023-04-27T18:36:21.852Z,1.40
2023-04-27T18:38:49.515Z,1.10
2023-04-27T18:41:17.183Z,2.00
2023-04-27T18:43:46.850Z,2.70
2023-04-27T18:46:14.630Z,1.53
2023-04-27T18:48:42.279Z,6.10
2023-04-27T18:51:09.850Z,12.13
2023-04-27T18:53:37.448Z,5.13
2023-04-27T18:56:06.320Z,4.13
2023-04-27T18:58:34.941Z,2.27
2023-04-27T19:01:06.105Z,1.67
2023-04-27T19:03:46.634Z,2.27
2023-04-27T19:06:14.609Z,2.43
2023-04-27T19:08:42.337Z,2.40
2023-04-27T19:11:10.165Z,2.67
2023-04-27T19:13:40.772Z,2.63
2023-04-27T19:16:10.100Z,3.00
2023-04-27T19:18:37.831Z,3.13
2023-04-27T19:21:07.790Z,2.97
2023-04-27T19:23:36.625Z,2.03
2023-04-27T19:26:12.589Z,2.73
2023-04-27T19:28:41.513Z,2.23
2023-04-27T19:31:13.372Z,2.43
2023-04-27T19:33:46.797Z,2.07
2023-04-27T19:36:14.943Z,3.80
2023-04-27T19:38:42.536Z,1.87
2023-04-27T19:41:10.698Z,2.27
2023-04-27T19:43:38.276Z,1.40
2023-04-27T19:46:06.209Z,2.07
2023-04-27T19:48:35.171Z,2.87
2023-04-27T19:51:02.919Z,2.10
2023-04-27T19:53:30.512Z,3.20
2023-04-27T19:56:00.590Z,2.47
2023-04-27T19:58:28.403Z,2.30
2023-04-27T20:00:56.025Z,2.30
2023-04-27T20:03:24.071Z,1.10
2023-04-27T20:05:53.562Z,1.20
2023-04-27T20:08:21.400Z,0.70
2023-04-27T20:10:49.197Z,0.90
2023-04-27T20:13:16.852Z,1.50
2023-04-27T20:15:44.510Z,0.90
2023-04-27T20:18:12.301Z,1.27
2023-04-27T20:20:42.013Z,1.53
2023-04-27T20:23:11.286Z,3.03
2023-04-27T20:25:38.951Z,1.87
2023-04-27T20:28:06.541Z,3.83
2023-04-27T20:30:34.370Z,3.10
2023-04-27T20:33:03.609Z,2.17
2023-04-27T20:35:31.290Z,2.43
2023-04-27T20:37:58.902Z,2.60
2023-04-27T20:40:28.172Z,2.00
2023-04-27T20:42:56.347Z,2.50
2023-04-27T20:45:25.363Z,1.37
2023-04-27T20:47:53.087Z,1.23
2023-04-27T20:50:20.699Z,2.37
2023-04-27T20:52:48.284Z,2.87
2023-04-27T20:55:16.068Z,1.77
2023-04-27T20:57:45.003Z,1.77
2023-04-27T21:00:15.364Z,1.83
2023-04-27T21:02:43.026Z,1.60
2023-04-27T21:05:11.001Z,2.23
2023-04-27T21:07:38.584Z,1.83
2023-04-27T21:10:08.110Z,2.23
2023-04-27T21:12:35.719Z,1.70
2023-04-27T21:15:05.324Z,3.00
2023-04-27T21:17:32.917Z,2.30
2023-04-27T21:20:00.665Z,2.27
2023-04-27T21:22:28.260Z,2.20
2023-04-27T21:24:55.965Z,2.00
2023-04-27T21:27:24.981Z,1.93
2023-04-27T21:29:53.194Z,1.90
2023-04-27T21:32:22.824Z,3.07
2023-04-27T21:34:50.973Z,2.90
2023-04-27T21:37:18.682Z,3.20
2023-04-27T21:39:46.568Z,2.87
2023-04-27T21:42:15.780Z,2.67
2023-04-27T21:44:43.348Z,2.30
2023-04-27T21:47:11.300Z,2.67
2023-04-27T21:49:40.239Z,1.87
2023-04-27T21:52:07.942Z,2.63
2023-04-27T21:54:35.530Z,2.60
2023-04-27T21:57:04.239Z,1.97
2023-04-27T21:59:31.823Z,2.17
2023-04-27T22:01:59.894Z,2.53
2023-04-27T22:04:28.752Z,3.00
2023-04-27T22:06:58.051Z,2.07
2023-04-27T22:09:25.612Z,2.20
2023-04-27T22:11:53.181Z,2.37
2023-04-27T22:14:20.874Z,2.00
2023-04-27T22:16:49.403Z,2.17
2023-04-27T22:19:17.848Z,2.33
2023-04-27T22:21:45.787Z,2.93
2023-04-27T22:24:15.012Z,2.40
2023-04-27T22:26:42.935Z,2.97
2023-04-27T22:29:10.526Z,3.40
2023-04-27T22:31:38.183Z,1.90
2023-04-27T22:34:06.196Z,2.27
2023-04-27T22:36:34.184Z,1.70
2023-04-27T22:39:01.771Z,2.57
2023-04-27T22:41:30.802Z,2.00
2023-04-27T22:43:58.375Z,2.50
2023-04-27T22:46:26.482Z,2.50
2023-04-27T22:48:55.054Z,2.43
2023-04-27T22:51:23.724Z,3.07
2023-04-27T22:53:51.309Z,1.93
2023-04-27T22:56:19.127Z,2.30
2023-04-27T22:58:48.087Z,2.50
2023-04-27T23:01:15.733Z,3.20
2023-04-27T23:03:43.632Z,2.60
2023-04-27T23:06:14.221Z,3.67
2023-04-27T23:08:44.720Z,2.53
2023-04-27T23:11:15.190Z,3.60
2023-04-27T23:13:42.798Z,2.73
2023-04-27T23:16:11.838Z,3.43
2023-04-27T23:18:40.025Z,3.10
2023-04-27T23:21:07.641Z,4.20
2023-04-27T23:23:35.971Z,3.17
2023-04-27T23:26:03.574Z,3.17
2023-04-27T23:28:31.521Z,2.73
2023-04-27T23:30:59.133Z,2.77
2023-04-27T23:33:28.548Z,4.03
2023-04-27T23:35:56.320Z,1.70
2023-04-27T23:38:24.193Z,3.37
2023-04-27T23:40:52.024Z,3.83
2023-04-27T23:43:19.834Z,2.07
2023-04-27T23:45:49.802Z,3.23
2023-04-27T23:48:17.589Z,2.27
2023-04-27T23:50:46.614Z,2.83
2023-04-27T23:53:14.332Z,2.87
2023-04-27T23:55:41.947Z,2.07
2023-04-27T23:58:09.646Z,3.83
